Time;durP1;ratioP1;P1;durP2;ratioP2;P2;SDS_P1;SDS_P2;PMS_P1;PMS_P2;Temp;Humidity;BMP_temperature;BMP_pressure;BME280_temperature;BME280_humidity;BME280_pressure;Samples;Min_cycle;Max_cycle;Signal;HPM_P1;HPM_P2
2022/02/03 00:02:08;;;;;;;;;;;5.30;99.90;;;;;;5089387;28;19931;-48
2022/02/03 00:04:43;;;;;;;;;;;5.30;99.90;;;;;;5093286;28;19924;-49
2022/02/03 00:07:16;;;;;;;;;;;5.20;99.90;;;;;;5093237;28;19924;-48
2022/02/03 00:10:08;;;;;;;;;;;5.10;99.90;;;;;;5092628;28;19978;-48
2022/02/03 00:26:27;;;;;;;;;;;5.00;99.90;;;;;;5092269;28;20025;-48
2022/02/03 00:28:55;;;;;;;;;;;5.10;99.90;;;;;;5092704;28;19947;-49
2022/02/03 00:31:37;;;;;;;;;;;5.00;99.90;;;;;;5092732;28;20386;-48
2022/02/03 00:34:10;;;;;;;;;;;4.90;99.90;;;;;;5092850;28;19924;-49
2022/02/03 00:37:03;;;;;;;;;;;5.00;99.90;;;;;;5091660;28;19928;-48
2022/02/03 00:50:31;;;;;;;;;;;5.10;99.90;;;;;;5092450;28;19934;-48
2022/02/03 00:53:01;;;;;;;;;;;5.20;99.90;;;;;;5092010;28;20397;-48
2022/02/03 00:55:28;;;;;;;;;;;5.20;99.90;;;;;;5092514;28;19963;-51
2022/02/03 00:57:59;;;;;;;;;;;5.20;99.90;;;;;;5092142;28;19924;-51
2022/02/03 01:00:29;;;;;;;;;;;5.20;99.90;;;;;;5092485;28;19928;-51
2022/02/03 01:02:56;;;;;;;;;;;5.20;99.90;;;;;;5092399;28;19989;-51
2022/02/03 01:05:23;;;;;;;;;;;5.20;99.90;;;;;;5091707;28;19928;-51
2022/02/03 01:07:51;;;;;;;;;;;5.10;99.90;;;;;;5091778;28;19977;-48
2022/02/03 01:10:22;;;;;;;;;;;5.10;99.90;;;;;;5091909;28;19967;-48
2022/02/03 01:12:59;;;;;;;;;;;5.10;99.90;;;;;;5092114;28;19932;-48
2022/02/03 01:15:35;;;;;;;;;;;5.10;99.90;;;;;;5092284;28;20102;-48
2022/02/03 01:18:34;;;;;;;;;;;5.00;99.90;;;;;;5091717;28;19924;-48
2022/02/03 01:34:47;;;;;;;;;;;5.10;99.90;;;;;;5092036;28;19931;-50
2022/02/03 01:37:33;;;;;;;;;;;5.20;99.90;;;;;;5091557;28;19931;-50
2022/02/03 01:45:48;;;;;;;;;;;5.30;99.90;;;;;;5091654;28;19931;-49
2022/02/03 01:48:22;;;;;;;;;;;5.20;99.90;;;;;;5091334;28;20405;-49
2022/02/03 01:53:35;;;;;;;;;;;5.20;99.90;;;;;;5071380;28;20045;-50
2022/02/03 01:56:03;;;;;;;;;;;5.10;99.90;;;;;;5081568;28;19924;-49
2022/02/03 01:58:31;;;;;;;;;;;5.10;99.90;;;;;;5091253;28;19970;-49
2022/02/03 02:00:59;;;;;;;;;;;5.20;99.90;;;;;;5091477;28;19978;-49
2022/02/03 02:03:32;;;;;;;;;;;5.20;99.90;;;;;;5090709;28;19925;-49
2022/02/03 02:06:10;;;;;;;;;;;5.20;99.90;;;;;;5071133;28;19950;-50
2022/02/03 02:08:41;;;;;;;;;;;5.00;99.90;;;;;;5083707;28;19977;-49
2022/02/03 02:11:22;;;;;;;;;;;4.90;99.90;;;;;;5091604;28;19925;-49
2022/02/03 02:14:11;;;;;;;;;;;4.90;99.90;;;;;;5090922;28;19924;-49
2022/02/03 02:17:07;;;;;;;;;;;4.90;99.90;;;;;;5091749;28;19955;-48
2022/02/03 02:19:59;;;;;;;;;;;4.90;99.90;;;;;;5090973;28;19932;-49
2022/02/03 02:39:07;;;;;;;;;;;4.90;99.90;;;;;;5089968;28;19964;-49
2022/02/03 02:44:37;;;;;;;;;;;4.90;99.90;;;;;;5085506;28;19924;-49
2022/02/03 02:47:08;;;;;;;;;;;5.00;99.90;;;;;;5091226;28;20057;-48
2022/02/03 02:49:43;;;;;;;;;;;5.00;99.90;;;;;;5090412;28;19933;-48
2022/02/03 02:52:17;;;;;;;;;;;5.00;99.90;;;;;;5091010;28;20424;-48
2022/02/03 02:54:58;;;;;;;;;;;5.00;99.90;;;;;;5091125;28;19925;-49
2022/02/03 03:00:54;;;;;;;;;;;5.10;99.90;;;;;;5010981;28;19926;-50
2022/02/03 03:31:01;;;;;;;;;;;4.80;99.90;;;;;;5092919;28;19931;-48
2022/02/03 03:33:34;;;;;;;;;;;4.70;99.90;;;;;;5092490;28;19978;-48
2022/02/03 03:36:04;;;;;;;;;;;4.70;99.90;;;;;;5088238;28;19924;-49
2022/02/03 03:38:34;;;;;;;;;;;4.70;99.90;;;;;;5073514;28;19967;-50
2022/02/03 03:41:02;;;;;;;;;;;4.80;99.90;;;;;;5085446;28;19955;-50
2022/02/03 03:43:29;;;;;;;;;;;4.70;99.90;;;;;;5075729;28;20362;-49
2022/02/03 03:46:00;;;;;;;;;;;4.70;99.90;;;;;;5077301;28;20419;-49
2022/02/03 03:48:30;;;;;;;;;;;4.60;99.90;;;;;;5073580;28;19977;-48
2022/02/03 03:51:01;;;;;;;;;;;4.60;99.90;;;;;;5073636;28;19982;-48
2022/02/03 03:53:36;;;;;;;;;;;4.60;99.90;;;;;;5073618;28;19931;-48
2022/02/03 03:56:08;;;;;;;;;;;4.70;99.90;;;;;;5073483;28;20434;-50
2022/02/03 03:59:01;;;;;;;;;;;4.70;99.90;;;;;;5073181;28;19962;-50
2022/02/03 04:30:27;;;;;;;;;;;4.40;99.90;;;;;;5088713;28;20680;-49
2022/02/03 04:33:37;;;;;;;;;;;4.40;99.90;;;;;;5074365;28;19931;-47
2022/02/03 04:39:17;;;;;;;;;;;4.40;99.90;;;;;;5106383;22;20423;-50
2022/02/03 05:02:22;;;;;;;;;;;4.10;99.90;;;;;;5094063;28;20007;-50
2022/02/03 05:05:04;;;;;;;;;;;4.00;99.90;;;;;;5105226;28;20012;-49
2022/02/03 05:07:48;;;;;;;;;;;4.10;99.90;;;;;;5106655;28;19938;-49
2022/02/03 05:10:37;;;;;;;;;;;4.00;99.90;;;;;;5107487;28;19928;-50
2022/02/03 05:13:35;;;;;;;;;;;4.00;99.90;;;;;;5105931;28;19924;-50
2022/02/03 05:16:37;;;;;;;;;;;4.10;99.90;;;;;;5106534;28;20488;-50
2022/02/03 05:19:39;;;;;;;;;;;4.00;99.90;;;;;;5106213;28;19944;-50
2022/02/03 05:42:40;;;;;;;;;;;3.80;99.90;;;;;;5104717;28;19926;-51
2022/02/03 05:45:41;;;;;;;;;;;3.80;99.90;;;;;;5096182;28;19924;-51
2022/02/03 05:51:17;;;;;;;;;;;3.80;99.90;;;;;;5107287;28;20301;-50
2022/02/03 06:02:34;;;;;;;;;;;3.80;99.90;;;;;;5091888;28;19932;-51
2022/02/03 06:05:06;;;;;;;;;;;3.70;99.90;;;;;;5102811;28;20015;-52
2022/02/03 06:13:37;;;;;;;;;;;3.60;99.90;;;;;;5047196;28;20411;-49
2022/02/03 06:16:29;;;;;;;;;;;3.60;99.90;;;;;;5057868;28;19972;-49
2022/02/03 06:21:41;;;;;;;;;;;3.50;99.90;;;;;;5084225;28;20440;-50
2022/02/03 06:24:17;;;;;;;;;;;3.50;99.90;;;;;;5086214;28;20015;-52
2022/02/03 06:29:31;;;;;;;;;;;3.40;99.90;;;;;;5089432;28;20439;-50
2022/02/03 06:31:59;;;;;;;;;;;3.50;99.90;;;;;;5094811;28;19993;-51
2022/02/03 06:34:25;;;;;;;;;;;3.50;99.90;;;;;;5086223;28;19932;-50
2022/02/03 06:36:53;;;;;;;;;;;3.50;99.90;;;;;;5085155;28;19936;-49
2022/02/03 06:39:23;;;;;;;;;;;3.40;99.90;;;;;;5077471;28;19986;-49
2022/02/03 06:41:53;;;;;;;;;;;3.30;99.90;;;;;;5073782;28;19924;-50
2022/02/03 06:44:21;;;;;;;;;;;3.30;99.90;;;;;;5089494;28;19928;-50
2022/02/03 06:46:51;;;;;;;;;;;3.30;99.90;;;;;;5090263;28;20022;-50
2022/02/03 06:49:25;;;;;;;;;;;3.20;99.90;;;;;;5077371;28;19979;-50
2022/02/03 06:51:58;;;;;;;;;;;3.20;99.90;;;;;;5087279;28;19934;-51
2022/02/03 06:54:35;;;;;;;;;;;3.20;99.90;;;;;;5087518;28;20332;-50
2022/02/03 06:57:05;;;;;;;;;;;3.30;99.90;;;;;;5073332;28;20407;-49
2022/02/03 06:59:40;;;;;;;;;;;3.30;99.90;;;;;;5093180;28;19935;-49
2022/02/03 07:02:07;;;;;;;;;;;3.40;99.90;;;;;;5092894;28;19931;-50
2022/02/03 07:04:41;;;;;;;;;;;3.50;99.90;;;;;;5100086;28;19931;-49
2022/02/03 07:07:08;;;;;;;;;;;3.60;99.90;;;;;;5078157;28;19963;-50
2022/02/03 07:09:36;;;;;;;;;;;3.50;99.90;;;;;;5090741;28;20011;-50
2022/02/03 07:12:06;;;;;;;;;;;3.50;99.90;;;;;;5088109;28;20351;-50
2022/02/03 07:14:34;;;;;;;;;;;3.40;99.90;;;;;;5093030;28;19928;-52
2022/02/03 07:17:02;;;;;;;;;;;3.40;99.90;;;;;;5092271;28;20065;-51
2022/02/03 07:19:29;;;;;;;;;;;3.40;99.90;;;;;;5097299;28;20366;-50
2022/02/03 07:21:56;;;;;;;;;;;3.40;99.90;;;;;;5097416;28;19964;-51
2022/02/03 07:24:24;;;;;;;;;;;3.50;99.90;;;;;;5092598;28;19931;-53
2022/02/03 07:26:52;;;;;;;;;;;3.50;99.90;;;;;;5091982;28;20358;-52
2022/02/03 07:29:19;;;;;;;;;;;3.70;99.90;;;;;;5102607;28;19930;-52
2022/02/03 07:31:46;;;;;;;;;;;3.80;99.90;;;;;;5092017;28;19970;-50
2022/02/03 07:34:15;;;;;;;;;;;3.90;99.90;;;;;;5092256;28;20554;-50
2022/02/03 07:36:44;;;;;;;;;;;4.20;99.90;;;;;;5092218;28;19924;-51
2022/02/03 07:39:11;;;;;;;;;;;4.30;99.90;;;;;;5102501;28;19992;-50
2022/02/03 07:41:38;;;;;;;;;;;4.40;99.90;;;;;;5097728;28;19928;-52
2022/02/03 07:44:07;;;;;;;;;;;4.70;99.90;;;;;;5075563;28;19985;-51
2022/02/03 07:46:34;;;;;;;;;;;5.00;99.90;;;;;;5071536;28;19925;-52
2022/02/03 07:49:01;;;;;;;;;;;5.10;99.90;;;;;;5079526;28;20031;-50
2022/02/03 07:51:28;;;;;;;;;;;5.10;99.90;;;;;;5071507;28;19936;-53
2022/02/03 07:53:55;;;;;;;;;;;5.20;99.90;;;;;;5071449;28;19924;-52
2022/02/03 07:56:21;;;;;;;;;;;5.10;99.90;;;;;;5071186;28;19924;-50
2022/02/03 07:58:48;;;;;;;;;;;5.20;99.90;;;;;;5081287;28;20401;-51
2022/02/03 08:01:16;;;;;;;;;;;5.30;99.90;;;;;;5090163;28;19924;-51
2022/02/03 08:03:45;;;;;;;;;;;5.20;99.90;;;;;;5090316;28;20049;-51
2022/02/03 08:06:17;;;;;;;;;;;5.20;99.90;;;;;;5077960;28;19925;-49
2022/02/03 08:08:47;;;;;;;;;;;5.00;99.90;;;;;;5082008;28;20297;-51
2022/02/03 08:11:19;;;;;;;;;;;5.10;99.90;;;;;;5088445;28;19931;-51
2022/02/03 08:13:52;;;;;;;;;;;5.10;99.90;;;;;;5092053;28;19954;-52
2022/02/03 08:16:26;;;;;;;;;;;5.00;99.90;;;;;;5086453;28;19924;-51
2022/02/03 08:18:58;;;;;;;;;;;5.20;99.90;;;;;;5091771;28;19982;-52
2022/02/03 08:21:25;;;;;;;;;;;5.30;99.90;;;;;;5091907;28;19928;-50
2022/02/03 08:27:03;;;;;;;;;;;5.40;99.90;;;;;;5090094;28;19921;-50
2022/02/03 08:30:01;;;;;;;;;;;5.30;99.90;;;;;;5112153;28;19978;-51
2022/02/03 08:32:26;;;;;;;;;;;5.40;99.90;;;;;;5111681;28;20319;-50
2022/02/03 08:35:20;;;;;;;;;;;5.80;99.90;;;;;;5112180;28;20014;-51
2022/02/03 08:37:58;;;;;;;;;;;6.00;99.90;;;;;;5101649;28;19943;-52
2022/02/03 08:40:29;;;;;;;;;;;6.30;99.90;;;;;;5092122;28;19924;-51
2022/02/03 08:42:56;;;;;;;;;;;6.90;99.90;;;;;;5091898;28;19947;-51
2022/02/03 08:45:22;;;;;;;;;;;8.00;99.90;;;;;;5096839;28;19924;-50
2022/02/03 08:47:50;;;;;;;;;;;8.80;99.90;;;;;;5092102;28;19977;-55
2022/02/03 08:50:18;;;;;;;;;;;9.60;99.90;;;;;;5091561;28;20286;-51
2022/02/03 08:52:53;;;;;;;;;;;10.40;99.90;;;;;;5091692;28;20382;-52
2022/02/03 08:55:29;;;;;;;;;;;11.10;99.90;;;;;;5092966;28;19973;-51
2022/02/03 09:28:43;;;;;;;;;;;9.70;99.90;;;;;;5082103;28;19966;-52
2022/02/03 09:37:00;;;;;;;;;;;8.60;99.90;;;;;;5055676;28;20285;-51
2022/02/03 09:39:47;;;;;;;;;;;9.00;99.90;;;;;;5070537;28;19924;-53
2022/02/03 09:53:41;;;;;;;;;;;11.90;99.90;;;;;;5055432;28;19928;-52
2022/02/03 09:56:26;;;;;;;;;;;12.40;99.90;;;;;;5095336;28;19969;-53
2022/02/03 09:59:06;;;;;;;;;;;11.80;99.90;;;;;;5094292;28;19924;-52
2022/02/03 10:01:35;;;;;;;;;;;11.10;99.90;;;;;;5094750;28;20014;-52
2022/02/03 10:04:10;;;;;;;;;;;11.10;99.90;;;;;;5093657;28;19938;-51
2022/02/03 10:06:42;;;;;;;;;;;11.10;99.90;;;;;;5093825;28;19924;-51
2022/02/03 10:09:10;;;;;;;;;;;12.30;99.90;;;;;;5093349;28;19924;-51
2022/02/03 10:11:37;;;;;;;;;;;13.10;99.90;;;;;;5094389;28;19924;-51
2022/02/03 10:14:05;;;;;;;;;;;13.00;99.90;;;;;;5093846;28;20369;-51
2022/02/03 10:16:33;;;;;;;;;;;13.40;99.90;;;;;;5097535;28;19970;-52
2022/02/03 10:19:04;;;;;;;;;;;14.00;99.90;;;;;;5093347;28;19932;-51
2022/02/03 10:21:31;;;;;;;;;;;14.30;99.90;;;;;;5094419;28;20399;-54
2022/02/03 10:24:00;;;;;;;;;;;14.10;99.90;;;;;;5098613;28;19953;-50
2022/02/03 10:26:36;;;;;;;;;;;13.60;99.90;;;;;;5099742;28;19977;-51
2022/02/03 10:29:04;;;;;;;;;;;13.50;99.90;;;;;;5086537;28;20387;-52
2022/02/03 10:31:34;;;;;;;;;;;13.00;99.90;;;;;;5076158;28;19924;-52
2022/02/03 10:34:06;;;;;;;;;;;12.00;99.90;;;;;;5079272;28;19977;-51
2022/02/03 10:36:43;;;;;;;;;;;11.40;99.90;;;;;;5091868;28;20015;-53
2022/02/03 10:39:25;;;;;;;;;;;10.90;99.90;;;;;;5091343;28;20282;-51
2022/02/03 10:42:10;;;;;;;;;;;10.70;99.90;;;;;;5091761;28;19924;-51
2022/02/03 10:44:58;;;;;;;;;;;10.90;99.90;;;;;;5089668;28;19924;-51
2022/02/03 10:48:09;;;;;;;;;;;10.60;99.90;;;;;;5072916;28;19933;-51
2022/02/03 10:53:43;;;;;;;;;;;12.50;99.90;;;;;;5087535;28;19920;-52
2022/02/03 10:56:20;;;;;;;;;;;13.60;99.90;;;;;;5086406;28;20027;-52
2022/02/03 11:02:01;;;;;;;;;;;12.50;99.90;;;;;;5049723;28;19978;-51
2022/02/03 11:04:48;;;;;;;;;;;12.40;99.90;;;;;;5089150;28;19961;-52
2022/02/03 11:07:26;;;;;;;;;;;11.90;99.90;;;;;;5079427;28;19939;-51
2022/02/03 11:10:00;;;;;;;;;;;11.40;99.90;;;;;;5087316;28;20043;-51
2022/02/03 11:12:29;;;;;;;;;;;11.60;99.90;;;;;;5091221;28;19932;-50
2022/02/03 11:14:58;;;;;;;;;;;11.80;99.90;;;;;;5093070;28;20019;-53
2022/02/03 11:17:26;;;;;;;;;;;11.90;99.90;;;;;;5077979;28;19968;-51
2022/02/03 11:19:57;;;;;;;;;;;12.20;99.90;;;;;;5072245;28;19925;-52
2022/02/03 11:22:30;;;;;;;;;;;12.60;99.90;;;;;;5074661;28;20020;-51
2022/02/03 11:25:09;;;;;;;;;;;12.50;99.90;;;;;;5088402;28;19923;-53
2022/02/03 11:27:51;;;;;;;;;;;12.30;99.90;;;;;;5073330;28;20025;-52
2022/02/03 11:33:39;;;;;;;;;;;12.50;99.90;;;;;;5099515;28;20057;-52
2022/02/03 11:36:26;;;;;;;;;;;12.30;99.90;;;;;;5096429;28;20306;-52
2022/02/03 11:39:44;;;;;;;;;;;12.30;99.90;;;;;;5088451;28;19959;-53
2022/02/03 11:42:32;;;;;;;;;;;12.50;99.90;;;;;;5071782;28;19928;-52
2022/02/03 11:45:28;;;;;;;;;;;12.70;99.90;;;;;;5090468;28;19998;-53
2022/02/03 11:51:13;;;;;;;;;;;13.00;99.90;;;;;;5152759;27;20365;-53
2022/02/03 11:54:03;;;;;;;;;;;13.10;99.90;;;;;;5152954;27;19924;-53
2022/02/03 11:57:10;;;;;;;;;;;12.90;99.90;;;;;;5159864;27;20436;-53
2022/02/03 12:00:03;;;;;;;;;;;13.30;99.90;;;;;;5169409;27;19923;-53
2022/02/03 12:02:47;;;;;;;;;;;13.20;99.90;;;;;;5149815;27;19978;-53
2022/02/03 12:05:48;;;;;;;;;;;13.00;99.90;;;;;;5154826;27;19979;-53
2022/02/03 12:11:34;;;;;;;;;;;13.40;99.90;;;;;;5158685;27;20497;-53
2022/02/03 12:14:19;;;;;;;;;;;13.10;99.90;;;;;;5153312;27;19924;-52
2022/02/03 12:19:37;;;;;;;;;;;13.00;99.90;;;;;;5149011;27;20010;-52
2022/02/03 12:22:11;;;;;;;;;;;12.90;99.90;;;;;;5149447;27;19927;-52
2022/02/03 12:24:48;;;;;;;;;;;12.90;99.90;;;;;;5149395;27;19930;-54
2022/02/03 12:27:28;;;;;;;;;;;13.00;99.90;;;;;;5149542;27;19923;-53
2022/02/03 12:30:01;;;;;;;;;;;12.70;99.90;;;;;;5150271;27;19927;-53
2022/02/03 12:32:43;;;;;;;;;;;12.70;99.90;;;;;;5150719;27;19976;-53
2022/02/03 12:38:21;;;;;;;;;;;12.30;99.90;;;;;;5171492;27;20066;-53
2022/02/03 12:40:56;;;;;;;;;;;12.20;99.90;;;;;;5172471;27;19949;-53
2022/02/03 12:43:33;;;;;;;;;;;11.90;99.90;;;;;;5172189;27;20043;-54
2022/02/03 12:46:02;;;;;;;;;;;11.80;99.90;;;;;;5171899;27;20303;-53
2022/02/03 12:48:29;;;;;;;;;;;11.60;99.90;;;;;;5171896;27;19934;-53
2022/02/03 12:50:56;;;;;;;;;;;11.60;99.90;;;;;;5172135;27;19976;-53
2022/02/03 12:53:29;;;;;;;;;;;11.70;99.90;;;;;;5171717;27;19923;-53
2022/02/03 12:55:57;;;;;;;;;;;11.80;99.90;;;;;;5170268;27;19934;-53
2022/02/03 12:58:26;;;;;;;;;;;11.70;99.90;;;;;;5169962;27;19930;-54
2022/02/03 13:00:56;;;;;;;;;;;12.00;99.90;;;;;;5164475;27;19923;-53
2022/02/03 13:03:30;;;;;;;;;;;12.10;99.90;;;;;;5156868;27;19968;-53
2022/02/03 13:05:57;;;;;;;;;;;12.00;99.90;;;;;;5157385;27;19969;-54
2022/02/03 13:08:35;;;;;;;;;;;12.00;99.90;;;;;;5157842;27;19927;-53
2022/02/03 13:11:11;;;;;;;;;;;11.90;99.90;;;;;;5156569;27;19923;-53
2022/02/03 13:13:51;;;;;;;;;;;11.90;99.90;;;;;;5156467;27;19929;-53
2022/02/03 13:16:18;;;;;;;;;;;12.10;99.90;;;;;;5150949;27;20018;-52
2022/02/03 13:18:59;;;;;;;;;;;11.90;99.90;;;;;;5135960;27;19984;-53
2022/02/03 13:21:36;;;;;;;;;;;12.10;99.90;;;;;;5135898;27;20458;-51
2022/02/03 13:24:07;;;;;;;;;;;12.20;99.90;;;;;;5146968;27;20484;-52
2022/02/03 13:26:37;;;;;;;;;;;11.90;99.90;;;;;;5147449;27;19970;-52
2022/02/03 13:29:08;;;;;;;;;;;11.60;99.90;;;;;;5134290;27;19929;-53
2022/02/03 13:31:44;;;;;;;;;;;11.50;99.90;;;;;;5134499;27;20043;-53
2022/02/03 13:34:25;;;;;;;;;;;11.60;99.90;;;;;;5139346;27;20388;-52
2022/02/03 13:36:59;;;;;;;;;;;11.90;99.90;;;;;;5153499;27;20033;-52
2022/02/03 13:39:28;;;;;;;;;;;12.20;99.90;;;;;;5153767;27;19923;-54
2022/02/03 13:42:08;;;;;;;;;;;12.40;99.90;;;;;;5145399;27;20014;-52
2022/02/03 13:44:35;;;;;;;;;;;12.60;99.90;;;;;;5134843;27;19923;-53
2022/02/03 13:47:19;;;;;;;;;;;12.50;99.90;;;;;;5142314;27;19923;-52
2022/02/03 13:49:59;;;;;;;;;;;12.10;99.90;;;;;;5138419;27;19923;-52
2022/02/03 13:52:30;;;;;;;;;;;11.70;99.90;;;;;;5135406;27;19927;-52
2022/02/03 14:10:29;;;;;;;;;;;11.50;99.90;;;;;;5156117;27;20500;-51
2022/02/03 14:23:20;;;;;;;;;;;10.50;99.90;;;;;;5156463;27;19926;-51
2022/02/03 14:28:30;;;;;;;;;;;10.50;99.90;;;;;;5155873;27;19926;-51
2022/02/03 14:31:02;;;;;;;;;;;10.40;99.90;;;;;;5156423;27;19927;-51
2022/02/03 14:33:33;;;;;;;;;;;10.20;99.90;;;;;;5156038;27;19958;-52
2022/02/03 14:36:05;;;;;;;;;;;10.00;99.90;;;;;;5155978;27;19927;-52
2022/02/03 14:38:38;;;;;;;;;;;9.90;99.90;;;;;;5155058;27;19927;-52
2022/02/03 14:41:11;;;;;;;;;;;9.80;99.90;;;;;;5155159;27;20448;-52
2022/02/03 14:43:39;;;;;;;;;;;9.80;99.90;;;;;;5155145;27;19927;-51
2022/02/03 14:46:12;;;;;;;;;;;9.90;99.90;;;;;;5155893;27;19932;-51
2022/02/03 14:48:41;;;;;;;;;;;9.70;99.90;;;;;;5155637;27;20389;-51
2022/02/03 14:51:08;;;;;;;;;;;9.70;99.90;;;;;;5155654;27;19972;-51
2022/02/03 14:53:49;;;;;;;;;;;9.50;99.90;;;;;;5153681;27;19942;-51
2022/02/03 14:59:00;;;;;;;;;;;9.30;99.90;;;;;;5154997;27;20055;-52
2022/02/03 15:01:30;;;;;;;;;;;9.30;99.90;;;;;;5155253;27;19923;-51
2022/02/03 15:03:58;;;;;;;;;;;9.20;99.90;;;;;;5154972;27;20459;-51
2022/02/03 15:06:28;;;;;;;;;;;9.00;99.90;;;;;;5155936;27;19924;-51
2022/02/03 15:09:09;;;;;;;;;;;8.80;99.90;;;;;;5149443;27;20018;-51
2022/02/03 15:11:54;;;;;;;;;;;8.80;99.90;;;;;;5134905;27;19976;-51
2022/02/03 15:14:21;;;;;;;;;;;8.90;99.90;;;;;;5153368;27;19963;-51
2022/02/03 15:16:49;;;;;;;;;;;9.00;99.90;;;;;;5155593;27;19927;-51
2022/02/03 15:19:16;;;;;;;;;;;9.10;99.90;;;;;;5155176;27;19931;-51
2022/02/03 15:21:43;;;;;;;;;;;9.10;99.90;;;;;;5150092;27;19927;-51
2022/02/03 15:24:10;;;;;;;;;;;9.10;99.90;;;;;;5155432;27;19954;-51
2022/02/03 15:26:38;;;;;;;;;;;9.10;99.90;;;;;;5150840;27;19931;-51
2022/02/03 15:29:05;;;;;;;;;;;9.10;99.90;;;;;;5148778;27;19949;-51
2022/02/03 15:31:33;;;;;;;;;;;9.00;99.90;;;;;;5164671;27;19944;-51
2022/02/03 15:34:08;;;;;;;;;;;9.00;99.90;;;;;;5165443;27;20009;-52
2022/02/03 15:36:36;;;;;;;;;;;8.80;99.90;;;;;;5145758;27;20306;-51
2022/02/03 15:39:09;;;;;;;;;;;8.70;99.90;;;;;;5132931;27;20305;-51
2022/02/03 15:41:36;;;;;;;;;;;8.60;99.90;;;;;;5133731;27;19931;-51
2022/02/03 15:44:03;;;;;;;;;;;8.50;99.90;;;;;;5133509;27;19967;-51
2022/02/03 15:46:32;;;;;;;;;;;8.40;99.90;;;;;;5133779;27;19923;-51
2022/02/03 15:49:10;;;;;;;;;;;8.40;99.90;;;;;;5143826;27;19924;-50
2022/02/03 15:57:36;;;;;;;;;;;8.30;99.90;;;;;;5144304;27;19934;-50
2022/02/03 16:03:09;;;;;;;;;;;8.40;99.90;;;;;;5135430;27;19919;-50
2022/02/03 16:14:44;;;;;;;;;;;8.00;99.90;;;;;;5151879;27;19931;-51
2022/02/03 16:16:56;;;;;;;;;;;7.80;99.90;;;;;;5151940;27;19950;-51
2022/02/03 16:19:30;;;;;;;;;;;7.60;99.90;;;;;;5152070;27;19980;-51
2022/02/03 16:22:03;;;;;;;;;;;7.50;99.90;;;;;;5137756;27;19923;-50
2022/02/03 16:24:43;;;;;;;;;;;7.30;99.90;;;;;;5133030;27;19923;-51
2022/02/03 16:41:50;;;;;;;;;;;6.70;99.90;;;;;;5136732;27;19929;-51
2022/02/03 16:52:35;;;;;;;;;;;6.40;99.90;;;;;;5155072;27;19947;-51
2022/02/03 16:55:08;;;;;;;;;;;6.40;99.90;;;;;;5147832;27;19923;-51
2022/02/03 16:57:35;;;;;;;;;;;6.40;99.90;;;;;;5144118;27;20457;-51
2022/02/03 17:00:06;;;;;;;;;;;6.40;99.90;;;;;;5156064;27;19927;-51
2022/02/03 17:02:33;;;;;;;;;;;6.30;99.90;;;;;;5156154;27;20293;-51
2022/02/03 17:05:00;;;;;;;;;;;6.40;99.90;;;;;;5137831;27;19923;-52
2022/02/03 17:07:27;;;;;;;;;;;6.40;99.90;;;;;;5149889;27;19983;-51
2022/02/03 17:09:55;;;;;;;;;;;6.70;99.90;;;;;;5157573;27;19950;-51
2022/02/03 17:12:23;;;;;;;;;;;6.80;99.90;;;;;;5143568;27;20019;-51
2022/02/03 17:14:50;;;;;;;;;;;6.70;99.90;;;;;;5136674;27;20000;-51
2022/02/03 17:17:20;;;;;;;;;;;6.60;99.90;;;;;;5137328;27;19923;-51
2022/02/03 17:19:47;;;;;;;;;;;6.40;99.90;;;;;;5136698;27;19923;-51
2022/02/03 17:22:15;;;;;;;;;;;6.30;99.90;;;;;;5136996;27;20358;-51
2022/02/03 17:24:49;;;;;;;;;;;6.30;99.90;;;;;;5156542;27;19927;-52
2022/02/03 17:27:24;;;;;;;;;;;6.20;99.90;;;;;;5156824;27;20070;-51
2022/02/03 17:30:00;;;;;;;;;;;6.10;99.90;;;;;;5144330;22;20406;-52
2022/02/03 18:03:05;;;;;;;;;;;6.30;99.90;;;;;;5046834;28;19921;-50
2022/02/03 18:08:39;;;;;;;;;;;6.40;99.90;;;;;;5058920;28;19970;-51
2022/02/03 18:11:23;;;;;;;;;;;6.60;99.90;;;;;;5071161;28;19947;-50
2022/02/03 18:30:25;;;;;;;;;;;6.60;99.90;;;;;;5068837;28;19958;-50
2022/02/03 18:33:10;;;;;;;;;;;6.60;99.90;;;;;;5076346;28;19944;-52
2022/02/03 18:35:54;;;;;;;;;;;6.50;99.90;;;;;;5071837;28;19931;-51
2022/02/03 18:52:23;;;;;;;;;;;6.90;99.90;;;;;;5055327;28;20383;-51
2022/02/03 18:55:06;;;;;;;;;;;7.10;99.90;;;;;;5053209;28;19924;-50
2022/02/03 18:57:48;;;;;;;;;;;7.20;99.90;;;;;;5056688;28;20408;-51
2022/02/03 19:03:24;;;;;;;;;;;7.20;99.90;;;;;;5054346;28;19929;-50
2022/02/03 19:14:40;;;;;;;;;;;7.30;99.90;;;;;;5070646;28;19931;-48
2022/02/03 20:04:12;;;;;;;;;;;7.00;99.90;;;;;;5069661;28;19927;-51
2022/02/03 20:06:53;;;;;;;;;;;7.10;99.90;;;;;;5067834;28;20313;-51
2022/02/03 20:09:27;;;;;;;;;;;6.90;99.90;;;;;;5067160;28;20347;-53
2022/02/03 20:11:54;;;;;;;;;;;6.80;99.90;;;;;;5071978;28;19978;-51
2022/02/03 20:14:24;;;;;;;;;;;6.80;99.90;;;;;;5073616;28;19928;-53
2022/02/03 20:16:51;;;;;;;;;;;6.80;99.90;;;;;;5069337;28;19929;-53
2022/02/03 20:19:17;;;;;;;;;;;6.80;99.90;;;;;;5073418;28;19932;-50
2022/02/03 20:21:45;;;;;;;;;;;6.80;99.90;;;;;;5073334;28;19924;-53
2022/02/03 20:24:12;;;;;;;;;;;6.80;99.90;;;;;;5073231;28;19979;-51
2022/02/03 20:26:41;;;;;;;;;;;6.90;99.90;;;;;;5071661;28;19977;-52
2022/02/03 20:29:08;;;;;;;;;;;6.90;99.90;;;;;;5074530;28;19924;-51
2022/02/03 20:31:36;;;;;;;;;;;6.90;99.90;;;;;;5073410;28;20452;-51
2022/02/03 20:34:03;;;;;;;;;;;6.70;99.90;;;;;;5074167;28;19929;-52
2022/02/03 20:36:30;;;;;;;;;;;6.40;99.90;;;;;;5072402;28;19986;-52
2022/02/03 20:38:56;;;;;;;;;;;6.20;99.90;;;;;;5061358;28;19929;-51
2022/02/03 20:41:23;;;;;;;;;;;6.00;99.90;;;;;;5054187;28;20008;-52
2022/02/03 20:43:50;;;;;;;;;;;5.90;99.90;;;;;;5055645;28;19970;-52
2022/02/03 20:46:17;;;;;;;;;;;5.90;99.90;;;;;;5064394;28;19925;-53
2022/02/03 20:48:49;;;;;;;;;;;5.90;99.90;;;;;;5065447;28;19925;-52
2022/02/03 20:51:16;;;;;;;;;;;5.90;99.90;;;;;;5057763;28;19929;-52
2022/02/03 20:53:43;;;;;;;;;;;6.00;99.90;;;;;;5054394;28;20353;-53
2022/02/03 20:56:10;;;;;;;;;;;5.90;99.90;;;;;;5056161;28;19924;-52
2022/02/03 20:58:38;;;;;;;;;;;5.90;99.90;;;;;;5056923;28;19999;-53
2022/02/03 21:01:12;;;;;;;;;;;5.80;99.90;;;;;;5073622;28;19924;-50
2022/02/03 21:03:41;;;;;;;;;;;5.70;99.90;;;;;;5074317;28;19955;-51
2022/02/03 21:06:11;;;;;;;;;;;5.90;99.90;;;;;;5062395;28;19925;-51
2022/02/03 21:08:40;;;;;;;;;;;5.90;99.90;;;;;;5072964;28;19924;-52
2022/02/03 21:11:06;;;;;;;;;;;6.00;99.90;;;;;;5055761;28;19925;-51
2022/02/03 21:13:33;;;;;;;;;;;5.80;99.90;;;;;;5054770;28;19932;-51
2022/02/03 21:16:02;;;;;;;;;;;6.00;99.90;;;;;;5066184;28;19925;-52
2022/02/03 21:18:30;;;;;;;;;;;6.10;99.90;;;;;;5073782;28;19928;-50
2022/02/03 21:20:57;;;;;;;;;;;6.00;99.90;;;;;;5073300;28;20007;-51
2022/02/03 21:23:25;;;;;;;;;;;6.00;99.90;;;;;;5054196;28;20301;-50
2022/02/03 21:25:52;;;;;;;;;;;5.90;99.90;;;;;;5062385;28;20432;-53
2022/02/03 21:28:22;;;;;;;;;;;5.80;99.90;;;;;;5053626;28;19928;-51
2022/02/03 21:30:50;;;;;;;;;;;5.80;99.90;;;;;;5054524;28;19932;-51
2022/02/03 21:33:22;;;;;;;;;;;5.70;99.90;;;;;;5064705;28;19986;-52
2022/02/03 21:35:49;;;;;;;;;;;5.70;99.90;;;;;;5057027;28;19925;-53
2022/02/03 21:38:17;;;;;;;;;;;5.90;99.90;;;;;;5060218;28;19925;-51
2022/02/03 21:40:45;;;;;;;;;;;5.80;99.90;;;;;;5071812;28;19924;-50
2022/02/03 21:43:12;;;;;;;;;;;5.90;99.90;;;;;;5070671;28;19986;-50
2022/02/03 21:45:39;;;;;;;;;;;6.00;99.90;;;;;;5053435;28;20420;-51
2022/02/03 21:48:06;;;;;;;;;;;6.00;99.90;;;;;;5053044;28;19979;-50
2022/02/03 21:50:35;;;;;;;;;;;5.90;99.90;;;;;;5053025;28;19980;-53
2022/02/03 21:53:05;;;;;;;;;;;5.80;99.90;;;;;;5053334;28;19928;-50
2022/02/03 21:55:34;;;;;;;;;;;5.70;99.90;;;;;;5057878;28;19929;-50
2022/02/03 21:58:03;;;;;;;;;;;5.70;99.90;;;;;;5072910;28;19924;-51
2022/02/03 22:00:30;;;;;;;;;;;5.60;99.90;;;;;;5056122;28;19931;-51
2022/02/03 22:02:57;;;;;;;;;;;5.60;99.90;;;;;;5056652;28;19925;-54
2022/02/03 22:05:24;;;;;;;;;;;5.60;99.90;;;;;;5073045;28;19928;-52
2022/02/03 22:07:50;;;;;;;;;;;5.60;99.90;;;;;;5067744;28;19925;-50
2022/02/03 22:10:18;;;;;;;;;;;5.50;99.90;;;;;;5059022;28;19925;-52
2022/02/03 22:12:46;;;;;;;;;;;5.30;99.90;;;;;;5064501;28;20011;-50
2022/02/03 22:15:15;;;;;;;;;;;5.10;99.90;;;;;;5052798;28;19935;-51
2022/02/03 22:17:42;;;;;;;;;;;4.90;99.90;;;;;;5056257;28;19932;-52
2022/02/03 22:20:17;;;;;;;;;;;4.80;99.90;;;;;;5052624;28;20214;-50
2022/02/03 22:22:52;;;;;;;;;;;4.60;99.90;;;;;;5070742;28;19970;-51
2022/02/03 22:25:40;;;;;;;;;;;4.50;99.90;;;;;;5072452;28;20394;-50
2022/02/03 22:28:26;;;;;;;;;;;4.40;99.90;;;;;;5072173;28;19976;-51
2022/02/03 22:39:20;;;;;;;;;;;4.70;99.90;;;;;;5052769;28;19951;-50
2022/02/03 22:44:30;;;;;;;;;;;4.80;99.90;;;;;;5052102;28;19974;-50
2022/02/03 22:47:21;;;;;;;;;;;5.00;99.90;;;;;;5052276;28;19935;-51
2022/02/03 22:49:47;;;;;;;;;;;5.10;99.90;;;;;;5058238;28;19954;-50
2022/02/03 22:52:16;;;;;;;;;;;5.00;99.90;;;;;;5061848;28;19925;-56
2022/02/03 22:54:43;;;;;;;;;;;5.10;99.90;;;;;;5065868;28;20404;-50